createdAt,value
2023-02-09T00:01:50.086Z,31.75
2023-02-09T00:07:11.870Z,32.12
2023-02-09T00:12:51.840Z,32.11
2023-02-09T00:18:13.557Z,32.37
2023-02-09T00:23:37.946Z,32.45
2023-02-09T00:28:59.919Z,31.96
2023-02-09T00:34:21.649Z,31.88
2023-02-09T00:39:43.503Z,32.19
2023-02-09T00:45:05.826Z,32.20
2023-02-09T00:50:29.127Z,32.01
2023-02-09T00:55:51.348Z,31.94
2023-02-09T01:01:13.702Z,31.81
2023-02-09T01:06:35.541Z,32.16
2023-02-09T01:11:57.572Z,32.12
2023-02-09T01:17:20.209Z,32.05
2023-02-09T01:22:42.203Z,31.87
2023-02-09T01:28:03.911Z,32.24
2023-02-09T01:33:25.682Z,31.80
2023-02-09T01:38:47.783Z,31.86
2023-02-09T01:44:12.292Z,31.86
2023-02-09T01:49:34.118Z,32.01
2023-02-09T01:55:04.427Z,32.25
2023-02-09T02:00:26.458Z,32.25
2023-02-09T02:05:53.761Z,32.03
2023-02-09T02:11:16.613Z,32.17
2023-02-09T02:17:07.309Z,32.30
2023-02-09T02:23:06.450Z,32.00
2023-02-09T02:28:45.740Z,32.29
2023-02-09T02:34:15.594Z,32.06
2023-02-09T02:39:44.990Z,32.04
2023-02-09T02:45:20.013Z,31.96
2023-02-09T02:50:48.811Z,32.32
2023-02-09T02:56:21.035Z,32.25
2023-02-09T03:01:50.088Z,32.04
2023-02-09T03:07:11.805Z,31.94
2023-02-09T03:12:49.822Z,32.34
2023-02-09T03:18:43.733Z,32.29
2023-02-09T03:24:18.045Z,31.93
2023-02-09T03:29:44.087Z,32.10
2023-02-09T03:35:08.517Z,32.22
2023-02-09T03:40:30.238Z,32.03
2023-02-09T03:45:52.255Z,32.01
2023-02-09T03:51:14.449Z,32.27
2023-02-09T03:56:37.743Z,32.11
2023-02-09T04:01:59.565Z,32.34
2023-02-09T04:07:21.258Z,32.09
2023-02-09T04:12:43.002Z,32.02
2023-02-09T04:18:04.748Z,32.37
2023-02-09T04:23:26.516Z,32.29
2023-02-09T04:28:48.328Z,32.00
2023-02-09T04:34:10.093Z,32.11
2023-02-09T04:39:32.088Z,32.42
2023-02-09T04:44:53.781Z,32.06
2023-02-09T04:50:15.625Z,32.41
2023-02-09T04:55:41.394Z,32.02
2023-02-09T05:01:04.660Z,32.20
2023-02-09T05:06:26.463Z,32.04
2023-02-09T05:11:48.261Z,32.14
2023-02-09T05:17:09.957Z,32.07
2023-02-09T05:22:31.621Z,32.22
2023-02-09T05:27:53.349Z,31.97
2023-02-09T05:33:15.058Z,32.19
2023-02-09T05:38:37.035Z,32.21
2023-02-09T05:43:58.835Z,32.35
2023-02-09T05:49:20.582Z,32.40
2023-02-09T05:54:42.608Z,32.05
2023-02-09T06:00:06.225Z,32.22
2023-02-09T06:05:28.294Z,32.44
2023-02-09T06:10:49.953Z,32.10
2023-02-09T06:16:11.777Z,32.44
2023-02-09T06:21:33.689Z,32.43
2023-02-09T06:26:56.493Z,32.31
2023-02-09T06:32:18.474Z,31.72
2023-02-09T06:37:40.266Z,31.22
2023-02-09T06:43:02.118Z,30.09
2023-02-09T06:48:23.934Z,29.64
2023-02-09T06:53:46.105Z,29.05
2023-02-09T06:59:07.840Z,28.95
2023-02-09T07:04:29.588Z,28.91
2023-02-09T07:09:51.329Z,29.14
2023-02-09T07:15:14.718Z,29.14
2023-02-09T07:20:36.427Z,29.02
2023-02-09T07:26:02.308Z,29.07
2023-02-09T07:31:24.260Z,29.43
2023-02-09T07:36:47.771Z,29.60
2023-02-09T07:42:09.808Z,29.54
2023-02-09T07:47:31.564Z,29.32
2023-02-09T07:52:54.620Z,29.59
2023-02-09T07:58:18.433Z,29.69
2023-02-09T08:03:43.148Z,30.16
2023-02-09T08:09:05.397Z,30.23
2023-02-09T08:14:35.979Z,30.30
2023-02-09T08:20:08.861Z,30.28
2023-02-09T08:25:30.617Z,29.85
2023-02-09T08:30:52.520Z,30.17
2023-02-09T08:36:14.999Z,30.08
2023-02-09T08:41:36.702Z,30.02
2023-02-09T08:46:58.612Z,30.38
2023-02-09T08:52:20.424Z,29.98
2023-02-09T08:57:44.671Z,30.56
2023-02-09T09:03:06.544Z,30.63
2023-02-09T09:08:29.017Z,30.62
2023-02-09T09:13:50.884Z,30.42
2023-02-09T09:19:12.762Z,30.79
2023-02-09T09:24:40.658Z,30.71
2023-02-09T09:30:04.704Z,30.79
2023-02-09T09:35:29.421Z,31.16
2023-02-09T09:40:51.179Z,31.19
2023-02-09T09:46:21.009Z,31.14
2023-02-09T09:51:46.522Z,31.37
2023-02-09T09:57:29.923Z,31.36
2023-02-09T10:02:52.312Z,31.68
2023-02-09T10:08:30.334Z,31.13
2023-02-09T10:13:55.161Z,31.12
2023-02-09T10:19:20.845Z,31.58
2023-02-09T10:24:42.650Z,31.12
2023-02-09T10:30:28.700Z,31.46
2023-02-09T10:36:01.296Z,31.55
2023-02-09T10:41:23.072Z,31.34
2023-02-09T10:46:47.187Z,31.66
2023-02-09T10:52:19.744Z,31.79
2023-02-09T10:57:41.607Z,31.63
2023-02-09T11:03:03.554Z,31.43
2023-02-09T11:08:32.194Z,31.58
2023-02-09T11:13:54.802Z,31.60
2023-02-09T11:19:26.079Z,31.80
2023-02-09T11:25:04.963Z,31.71
2023-02-09T11:30:48.517Z,32.20
2023-02-09T11:36:22.585Z,31.80
2023-02-09T11:42:12.703Z,32.00
2023-02-09T11:48:03.998Z,31.72
2023-02-09T11:53:40.999Z,31.42
2023-02-09T11:59:10.072Z,31.57
2023-02-09T12:04:56.327Z,31.15
2023-02-09T12:10:30.413Z,31.06
2023-02-09T12:16:01.323Z,30.92
2023-02-09T12:21:38.410Z,30.77
2023-02-09T12:27:00.461Z,30.54
2023-02-09T12:32:41.281Z,30.39
2023-02-09T12:39:04.069Z,30.45
2023-02-09T12:44:26.174Z,30.93
2023-02-09T12:49:47.937Z,31.15
2023-02-09T12:55:20.530Z,31.02
2023-02-09T13:00:51.535Z,31.06
2023-02-09T13:06:31.810Z,31.17
2023-02-09T13:12:05.845Z,31.47
2023-02-09T13:18:18.383Z,31.68
2023-02-09T13:23:54.794Z,31.44
2023-02-09T13:29:22.660Z,31.63
2023-02-09T13:34:59.238Z,31.83
2023-02-09T13:40:29.682Z,31.52
2023-02-09T13:45:54.816Z,31.90
2023-02-09T13:51:19.351Z,31.52
2023-02-09T13:56:41.938Z,31.61
2023-02-09T14:02:03.696Z,31.76
2023-02-09T14:07:32.558Z,31.60
2023-02-09T14:13:20.632Z,31.83
2023-02-09T14:18:57.183Z,31.31
2023-02-09T14:24:27.096Z,30.44
2023-02-09T14:29:50.388Z,30.27
2023-02-09T14:35:25.360Z,30.01
2023-02-09T14:40:47.122Z,29.85
2023-02-09T14:46:08.929Z,30.03
2023-02-09T14:51:30.699Z,29.81
2023-02-09T14:56:54.716Z,30.37
2023-02-09T15:02:24.041Z,30.10
2023-02-09T15:07:53.204Z,30.65
2023-02-09T15:13:16.115Z,30.57
2023-02-09T15:18:39.409Z,30.78
2023-02-09T15:24:01.321Z,30.84
2023-02-09T15:29:23.016Z,30.62
2023-02-09T15:34:45.481Z,30.44
2023-02-09T15:40:52.745Z,29.84
2023-02-09T15:46:33.727Z,29.85
2023-02-09T15:51:55.531Z,29.65
2023-02-09T15:57:17.218Z,29.64
2023-02-09T16:02:38.898Z,29.38
2023-02-09T16:08:00.679Z,28.94
2023-02-09T16:13:22.856Z,29.00
2023-02-09T16:18:45.300Z,29.27
2023-02-09T16:24:08.230Z,29.29
2023-02-09T16:29:30.028Z,29.62
2023-02-09T16:34:52.100Z,29.87
2023-02-09T16:40:16.924Z,30.33
2023-02-09T16:45:43.180Z,30.58
2023-02-09T16:51:13.900Z,30.74
2023-02-09T16:56:40.914Z,30.90
2023-02-09T17:02:31.321Z,30.96
2023-02-09T17:07:59.759Z,31.01
2023-02-09T17:13:22.078Z,30.60
2023-02-09T17:18:44.605Z,30.97
2023-02-09T17:24:13.390Z,30.98
2023-02-09T17:29:35.267Z,30.94
2023-02-09T17:34:57.108Z,30.59
2023-02-09T17:40:22.428Z,30.09
2023-02-09T17:45:49.270Z,29.99
2023-02-09T17:51:24.116Z,30.31
2023-02-09T17:56:46.696Z,30.24
2023-02-09T18:02:17.222Z,30.94
2023-02-09T18:07:38.951Z,30.88
2023-02-09T18:13:00.611Z,31.35
2023-02-09T18:18:24.312Z,31.50
2023-02-09T18:23:46.190Z,32.22
2023-02-09T18:29:07.868Z,32.52
2023-02-09T18:34:30.281Z,32.99
2023-02-09T18:39:51.967Z,32.86
2023-02-09T18:45:18.817Z,33.63
2023-02-09T18:50:40.560Z,33.41
2023-02-09T18:56:02.467Z,33.48
2023-02-09T19:01:24.949Z,33.54
2023-02-09T19:06:46.734Z,33.44
2023-02-09T19:12:08.554Z,33.21
2023-02-09T19:17:30.328Z,32.38
2023-02-09T19:22:52.880Z,32.49
2023-02-09T19:28:15.695Z,32.46
2023-02-09T19:33:37.676Z,32.34
2023-02-09T19:39:00.754Z,32.76
2023-02-09T19:44:23.740Z,32.27
2023-02-09T19:49:46.579Z,32.53
2023-02-09T19:55:08.738Z,32.45
2023-02-09T20:00:32.017Z,32.74
2023-02-09T20:05:53.854Z,33.35
2023-02-09T20:11:18.053Z,33.09
2023-02-09T20:16:40.300Z,32.85
2023-02-09T20:22:02.066Z,32.55
2023-02-09T20:27:23.889Z,32.32
2023-02-09T20:32:45.681Z,31.79
2023-02-09T20:38:07.700Z,31.30
2023-02-09T20:43:48.244Z,31.14
2023-02-09T20:49:13.161Z,31.17
2023-02-09T20:54:35.719Z,31.18
2023-02-09T21:00:00.876Z,31.21
2023-02-09T21:05:22.940Z,31.66
2023-02-09T21:10:44.657Z,31.53
2023-02-09T21:16:06.494Z,31.61
2023-02-09T21:21:29.587Z,32.18
2023-02-09T21:26:51.493Z,32.58
2023-02-09T21:32:13.342Z,33.02
2023-02-09T21:37:35.034Z,33.40
2023-02-09T21:42:56.852Z,33.17
2023-02-09T21:48:18.664Z,32.71
2023-02-09T21:53:41.638Z,32.94
2023-02-09T21:59:03.597Z,32.96
2023-02-09T22:04:25.994Z,33.14
2023-02-09T22:09:47.889Z,33.38
2023-02-09T22:15:10.076Z,33.40
2023-02-09T22:20:31.808Z,33.66
2023-02-09T22:26:00.524Z,33.32
2023-02-09T22:31:22.617Z,33.56
2023-02-09T22:36:44.358Z,33.41
2023-02-09T22:42:06.148Z,33.46
2023-02-09T22:47:27.837Z,33.75
2023-02-09T22:52:49.544Z,33.51
2023-02-09T22:58:11.320Z,33.97
2023-02-09T23:03:36.466Z,33.63
2023-02-09T23:09:00.786Z,33.81
2023-02-09T23:14:22.598Z,34.05
2023-02-09T23:19:45.079Z,33.72
2023-02-09T23:25:07.341Z,33.99
2023-02-09T23:30:29.378Z,33.75
2023-02-09T23:35:51.046Z,33.82
2023-02-09T23:41:15.816Z,33.79
2023-02-09T23:46:37.890Z,34.20
2023-02-09T23:51:59.953Z,33.88
2023-02-09T23:57:23.706Z,34.13
